Terminal Aerodrome Forecast
Issued by NWS Twin Cities, MN

Home | Current Version | Previous Version | Text Only | Print | Product List | Glossary Off
Versions: 1 2 3 4 5 6 7 8 9 10 11 12 13 14 15 16 17

028
FTUS43 KMPX 271120
TAFSTC
TAF
KSTC 271120Z 2712/2812 VRB03KT P6SM -SHRA VCTS SCT060CB OVC100
     FM271500 VRB03KT P6SM OVC070
     FM271700 VRB03KT P6SM SCT025 OVC040
      TEMPO 2718/2721 3SM -TSRA BKN025CB
     FM272100 03006KT P6SM OVC035
     FM280400 01003KT P6SM OVC012
     FM280800 01003KT 3SM BR OVC006=

USA.gov is the U.S. government's official web portal to all federal, state and local government web resources and services.